Historique des mesures à Cassis (13260), France
Quotidien Résumé Janvier 1, 2017 Unités:  US    Métrique   Métrique/US
« Précédent (Jour)
Suivant (Jour) »
Quotidien Hebdomadaire Mensuel Annuel Période au choix
  Maximum: Minimum: Moyenne:
Température: 32 °F 47.3 °F 50.7 °F
Point de rosée: 32 °F 39.9 °F 43 °F
Humidité: Humidity % 70 % 71 %
Vitesse du vent: WindSpeedKMH mph 0.0 mph 1.9 mph
Rafales: WindSpeedGustKMH mph - -
Vent:- - SSE
Pression: 0 in 30.1 in -
Précipitations: 0 in    
Historical Graphs
 
 
Mesures pour : Janvier 1, 2017
Heure Temperature Point de rosée Pression Vent Vitesse du vent Rafales Humidité Pluie (par heure) Conditions
32 °F 32 °F 0 in Calm     Humidity % 0 in SoftwareType W/m2
00:11 49.5 °F 40.8 °F 30.3 in NNW 4.7 mph 8.2 mph 72 % 0 in open2300-1.11 W/m2
01:10 48.2 °F 39.9 °F 30.3 in North 2.1 mph 2.6 mph 73 % 0 in open2300-1.11 W/m2
02:11 48 °F 40.6 °F 30.2 in North 5.5 mph 6.8 mph 76 % 0 in open2300-1.11 W/m2
03:10 47.8 °F 40.3 °F 30.2 in NW 3.5 mph 3.5 mph 75 % 0 in open2300-1.11 W/m2
04:11 47.3 °F 40.1 °F 30.2 in North 1.8 mph 4.0 mph 76 % 0 in open2300-1.11 W/m2
05:10 47.8 °F 40.6 °F 30.2 in NNW 3.5 mph 3.5 mph 76 % 0 in open2300-1.11 W/m2
06:11 48.9 °F 40.8 °F 30.2 in NW 6.1 mph 6.1 mph 74 % 0 in open2300-1.11 W/m2
07:10 48.2 °F 40.5 °F 30.2 in NNE 2.1 mph 2.1 mph 75 % 0 in open2300-1.11 W/m2
08:11 47.8 °F 40.8 °F 30.2 in NNE 1.4 mph 3.2 mph 77 % 0 in open2300-1.11 W/m2
09:10 49.1 °F 42.4 °F 30.2 in NNE 1.8 mph 1.8 mph 78 % 0 in open2300-1.11 W/m2
10:11 51.8 °F 45.1 °F 30.2 in Calm   4.7 mph 78 % 0 in open2300-1.11 W/m2
11:10 54 °F 46.9 °F 30.2 in Calm   2.9 mph 77 % 0 in open2300-1.11 W/m2
12:11 56.1 °F 48.2 °F 30.2 in SW 7.2 mph 7.2 mph 75 % 0 in open2300-1.11 W/m2
13:10 56.5 °F 47.5 °F 30.1 in SSE 5.5 mph 5.5 mph 72 % 0 in open2300-1.11 W/m2
14:11 56.5 °F 47.1 °F 30.1 in Calm   2.6 mph 71 % 0 in open2300-1.11 W/m2
15:10 56.3 °F 46.8 °F 30.1 in Calm   3.2 mph 70 % 0 in open2300-1.11 W/m2
16:11 55.9 °F 46.9 °F 30.1 in Calm   6.1 mph 72 % 0 in open2300-1.11 W/m2
17:10 55.2 °F 46 °F 30.1 in Calm     71 % 0 in open2300-1.11 W/m2
18:11 54.1 °F 45 °F 30.1 in NNW 3.2 mph 3.2 mph 71 % 0 in open2300-1.11 W/m2
19:10 51.8 °F 43.2 °F 30.1 in Calm     72 % 0 in open2300-1.11 W/m2
20:11 51.1 °F 43.2 °F 30.1 in Calm     74 % 0 in open2300-1.11 W/m2
21:10 51.6 °F 43.5 °F 30.1 in Calm     74 % 0 in open2300-1.11 W/m2
22:11 52.3 °F 44.2 °F 30.1 in Calm     74 % 0 in open2300-1.11 W/m2
23:10 51.6 °F 44.1 °F 30.1 in Calm     75 % 0 in open2300-1.11 W/m2
Observations météo à CASSIS
WU-History script by Weather Underground - 1 mb